Professional Rodeo Cowboys Association
PRCA RAM WORLD STANDINGS
ProRodeo Gear Official Merchandise Of The PRCA

PRCA Stock Statistics

SEARCH BY:
Stock Rodeo Contestant Stock Contractor

J.C. Hester Jr.

EVENT:
Unofficial results reflect placement at time of Web posting and can change.

SEASON BREAKDOWN

Season Attempts Qual Rides Re-rides Ride %
2019 54 32 0 59.26 %
2018 49 25 0 51.02 %
2017 68 29 0 42.65 %
2016 24 11 0 45.83 %
2015 27 12 0 44.44 %
Totals 222 109 0 0.00 %

RODEO DETAIL

Date Location Rodeo SC Brand Ride Comments Stock Score Contestant Score
9/3/2019 Blackfoot, ID Gem State Classic Pro Rodeo PR 146 77.00 19.00 / 18.00 21.00 / 19.00
9/1/2019 Dillon, MT Dillon Jaycees PRCA Rodeo-Montana s Biggest Weekend SA 073 80.00 20.50 / 18.00 21.50 / 20.00
8/31/2019 Plains, MT Sanders County Fair & PRCA Rodeo PR 161 0.00 21.00 / 22.00 0.00 / 0.00
8/25/2019 San Juan Capistrano, CA Rancho Mission Viejo Rodeo C5 F13 0.00 24.00 / 23.50 0.00 / 0.00
8/23/2019 Hastings, NE Oregon Trail Rodeo KR 415 77.50 22.00 / 21.50 17.00 / 17.00
8/16/2019 Billings, MT Yellowstone River Round-Up SA 238 78.50 21.00 / 22.50 17.00 / 18.00
8/15/2019 Kalispell, MT Northwest Montana Fair and Rodeo KC 418 0.00 20.50 / 20.00 0.00 / 0.00
8/10/2019 Logan, UT Cache County Fair And Rodeo BT M5Z 75.00 20.00 / 20.00 16.00 / 19.00
8/9/2019 Missoula, MT Missoula Stampede SA 432 83.00 20.00 / 21.00 23.00 / 19.00
8/8/2019 Bozeman, MT Bozeman Stampede SA 235 80.00 20.00 / 20.00 20.00 / 20.00
8/7/2019 Hermiston, OR Farm-City Pro Rodeo GK 502 0.00 21.50 / 18.00 0.00 / 0.00
8/3/2019 Sandpoint, ID Bonner County Rodeo C5 3371 76.00 18.00 / 20.00 20.00 / 18.00
8/2/2019 Sidney, MT Richland County Fair & Rodeo BR 203 69.00 16.00 / 17.00 19.00 / 17.00
8/1/2019 Great Falls, MT Big Sky Pro Rodeo SA 331 0.00 23.00 / 22.00 0.00 / 0.00
7/31/2019 Glasgow, MT Northeast Montana Fair & Rodeo CP 400 70.00 16.00 / 16.00 20.00 / 18.00
7/26/2019 Deadwood, SD Deadwood Days Of 76 Rodeo BR 301 82.00 23.00 / 22.00 20.00 / 17.00
7/25/2019 Eagle, CO Eagle County Fair & Rodeo CR A15 0.00 21.50 / 22.00 0.00 / 0.00
7/24/2019 Burwell, NE Nebraska s Big Rodeo BU 202 84.00 20.50 / 21.00 22.50 / 20.00
7/20/2019 Ogden, UT Ogden Pioneer Days KR 418 78.00 20.00 / 19.00 19.00 / 20.00
7/19/2019 Salinas, CA California Rodeo Salinas CH 015 76.50 19.50 / 20.00 22.00 / 15.00
7/17/2019 Nampa, ID Snake River Stampede RO 2407 72.00 20.00 / 22.00 15.00 / 15.00
7/13/2019 Spooner, WI Heart Of The North Rodeo BA 726 73.00 18.00 / 18.00 20.00 / 17.00
7/10/2019 Estes Park, CO Rooftop Rodeo CB M27 0.00 20.50 / 19.50 0.00 / 0.00
7/4/2019 Killdeer, ND Killdeer Mountain Roundup PRCA Rodeo CP 270 70.00 18.00 / 19.00 19.00 / 14.00
7/3/2019 Red Lodge, MT Home Of Champions Rodeo BR 204 0.00 21.00 / 21.50 0.00 / 0.00
Page of 3
Per Page
 
 
 
PRCA Sponsors

MGM Grand Polaris Ranger Cinch Jeans Bloomer Trailers Gold Buckle Beer Outlaw Equine

Copyright © 2019 Professional Rodeo Cowboys Association. All rights reserved. No portion of ProRodeo.com may be duplicated, redistributed or manipulated in any form. By accessing any information beyond this page, you agree to abide by the Terms of Use.


PRCA Wrangler National Finals Rodeo Wrangler ProRodeo Tour Finale Presented by Justin Boots Xtreme Bulls RAM National Circuit Finals Rodeo ProRodeo Gear ProRodeo Tour World Standings Tour Standings PRCA Rodeo Schedule Rodeo Results Facebook Twitter Instagram YouTube Mobile App ProRodeoTv.Com